Weather reports worldwide

Advertisment
Venezia Lido, Italy (16101): temperature & dewpoint: 08.07.2020 11:00:00 - 14.07.2020 11:00:00 (CEST)Venezia Lido, Italy (16101): wind speed: 08.07.2020 11:00:00 - 14.07.2020 11:00:00 (CEST)Venezia Lido, Italy (16101): wind direction: 08.07.2020 11:00:00 - 14.07.2020 11:00:00 (CEST)Venezia Lido, Italy (16101): reduced air pressure: 08.07.2020 11:00:00 - 14.07.2020 11:00:00 (CEST)Venezia Lido, Italy (16101): precipitation: 08.07.2020 11:00:00 - 14.07.2020 11:00:00 (CEST)
Date & Time tt [°C] td [°C] ff [km/h] ff [kn] dd ppp [hPa] rr [mm]
14.07.2020 11:00:00 23,6 9,5 21 11 E 1016,8 -
14.07.2020 10:00:00 21,9 11,3 18 10 E 1016,8 -
14.07.2020 09:00:00 21,6 12,7 16 9 E 1016,9 -
14.07.2020 08:00:00 20,3 12,9 11 6 ENE 1016,9 0,0
14.07.2020 07:00:00 19,7 12,7 15 8 ENE 1017,0 -
14.07.2020 06:00:00 19,7 13,1 15 8 ENE 1017,1 -
14.07.2020 05:00:00 19,8 14,1 9 5 ENE 1017,2 -
14.07.2020 04:00:00 20,4 13,0 15 8 E 1017,6 -
14.07.2020 03:00:00 21,8 12,6 16 9 E 1017,7 -
14.07.2020 02:00:00 21,4 13,0 16 9 E 1017,7 0,0
14.07.2020 01:00:00 21,8 12,3 16 9 E 1017,9 -
14.07.2020 00:00:00 21,7 13,5 15 8 E 1018,0 -
13.07.2020 23:00:00 22,4 11,1 15 8 E 1017,7 -
13.07.2020 22:00:00 23,5 7,9 11 6 E 1017,5 -
13.07.2020 21:00:00 24,8 6,5 11 6 E 1017,2 -
13.07.2020 20:00:00 26,0 6,1 13 7 ESE 1017,4 0,0
13.07.2020 19:00:00 26,1 6,2 15 8 ESE 1017,9 -
13.07.2020 18:00:00 26,1 6,7 18 10 ESE 1018,6 -
13.07.2020 17:00:00 26,0 6,1 16 9 SE 1019,3 -
13.07.2020 16:00:00 25,2 8,6 13 7 SE 1019,7 -
13.07.2020 15:00:00 24,9 10,7 15 8 SE 1020,1 -
13.07.2020 14:00:00 25,1 10,5 16 9 ESE 1020,9 0,0
13.07.2020 13:00:00 24,2 8,1 21 11 ESE 1021,7 -
13.07.2020 12:00:00 22,9 9,6 26 14 E 1021,9 -
13.07.2020 11:00:00 22,7 12,0 24 13 E 1021,9 -
13.07.2020 10:00:00 20,5 12,9 18 10 E 1022,1 -
13.07.2020 09:00:00 19,8 12,0 18 10 E 1021,9 -
13.07.2020 08:00:00 19,7 12,7 15 8 ENE 1021,8 0,0
13.07.2020 07:00:00 20,0 11,2 13 7 ENE 1021,9 -
13.07.2020 06:00:00 20,3 11,7 11 6 ENE 1022,0 -
13.07.2020 05:00:00 20,7 12,4 13 7 ENE 1022,1 -
13.07.2020 04:00:00 21,6 12,9 16 9 E 1022,3 -
13.07.2020 03:00:00 22,2 12,1 21 11 E 1022,3 -
13.07.2020 02:00:00 22,7 11,7 21 11 E 1022,4 0,0
13.07.2020 01:00:00 22,7 13,1 26 14 E 1022,2 -
13.07.2020 00:00:00 23,0 13,4 22 12 ESE 1021,8 -
12.07.2020 23:00:00 21,7 14,5 15 8 E 1021,7 -
12.07.2020 22:00:00 22,4 12,3 13 7 E 1021,1 -
12.07.2020 21:00:00 24,5 12,4 16 9 ESE 1020,8 -
12.07.2020 20:00:00 25,3 12,8 16 9 ESE 1020,7 0,0
12.07.2020 19:00:00 25,4 12,6 15 8 SE 1021,0 -
12.07.2020 18:00:00 25,5 13,6 15 8 SE 1021,2 -
12.07.2020 17:00:00 25,5 13,6 15 8 SE 1021,4 -
12.07.2020 16:00:00 25,2 13,0 16 9 SE 1021,5 -
12.07.2020 15:00:00 25,1 12,3 18 10 ESE 1021,9 -
12.07.2020 14:00:00 24,9 14,9 18 10 ESE 1022,1 0,0
12.07.2020 13:00:00 24,6 14,3 21 11 ESE 1021,8 -
12.07.2020 12:00:00 24,1 14,7 24 13 ESE 1021,6 -
12.07.2020 11:00:00 23,4 15,9 26 14 E 1021,6 -
12.07.2020 10:00:00 23,0 16,2 24 13 E 1021,3 -
12.07.2020 09:00:00 21,1 16,8 16 9 E 1020,8 -
12.07.2020 08:00:00 20,0 17,0 15 8 E 1020,1 -
12.07.2020 07:00:00 18,9 16,3 8 4 ENE 1019,4 -
12.07.2020 06:00:00 19,2 16,4 8 4 ENE 1018,9 -
12.07.2020 05:00:00 19,5 17,0 9 5 ENE 1018,5 -
12.07.2020 04:00:00 19,4 17,3 8 4 ENE 1018,3 -
12.07.2020 03:00:00 19,8 17,5 8 4 ENE 1018,5 -
12.07.2020 02:00:00 20,5 16,5 16 9 E 1018,5 -
12.07.2020 01:00:00 20,7 17,1 22 12 E 1018,3 -
12.07.2020 00:00:00 21,0 18,5 22 12 E 1017,7 -
11.07.2020 23:00:00 20,6 18,5 18 10 E 1016,8 -
11.07.2020 22:00:00 21,3 18,4 15 8 E 1015,8 -
11.07.2020 21:00:00 21,6 19,8 28 15 E 1014,3 -
11.07.2020 20:00:00 22,4 19,3 13 7 WNW 1016,1 -
11.07.2020 19:00:00 25,2 17,6 24 13 E 1013,8 -
11.07.2020 18:00:00 27,7 17,5 18 10 E 1013,3 -
11.07.2020 17:00:00 28,4 15,3 15 8 E 1013,1 -
11.07.2020 16:00:00 28,7 16,9 15 8 ENE 1012,9 -
11.07.2020 15:00:00 28,1 20,1 8 4 SW 1013,2 -
11.07.2020 14:00:00 28,3 21,5 13 7 E 1013,0 0,0
11.07.2020 13:00:00 27,9 20,7 8 4 E 1013,2 -
11.07.2020 12:00:00 27,8 21,8 8 4 SE 1013,1 -
11.07.2020 11:00:00 27,0 22,6 9 5 E 1012,9 -
11.07.2020 10:00:00 25,2 23,2 11 6 E 1013,1 -
11.07.2020 09:00:00 25,6 23,8 9 5 E 1012,8 -
11.07.2020 08:00:00 24,9 22,1 13 7 ESE 1012,3 0,0
11.07.2020 07:00:00 24,9 23,1 13 7 SE 1012,4 -
11.07.2020 06:00:00 24,5 22,7 11 6 ESE 1012,6 -
11.07.2020 05:00:00 24,0 22,2 11 6 ESE 1012,5 -
11.07.2020 04:00:00 23,7 21,7 5 3 E 1013,3 -
11.07.2020 03:00:00 24,2 22,2 4 2 ENE 1013,8 -
11.07.2020 02:00:00 23,5 19,0 0 0 N 1013,6 0,0
11.07.2020 01:00:00 24,9 19,4 2 1 W 1013,6 -
11.07.2020 00:00:00 25,7 20,9 9 5 SW 1013,2 -
10.07.2020 23:00:00 25,9 22,3 11 6 SSW 1013,2 -
10.07.2020 22:00:00 26,0 21,8 11 6 SSW 1013,1 -
10.07.2020 21:00:00 26,6 22,0 13 7 SSW 1013,0 -
10.07.2020 20:00:00 27,2 22,1 11 6 S 1012,9 0,0
10.07.2020 19:00:00 27,6 21,8 13 7 S 1012,9 -
10.07.2020 18:00:00 27,8 22,0 13 7 S 1013,6 -
10.07.2020 17:00:00 28,2 20,4 15 8 S 1014,2 -
10.07.2020 16:00:00 28,2 20,4 13 7 S 1014,7 -
10.07.2020 15:00:00 28,0 19,5 11 6 S 1015,0 -
10.07.2020 14:00:00 27,6 21,3 9 5 S 1015,3 0,0
10.07.2020 13:00:00 27,4 21,8 11 6 SSW 1015,6 -
10.07.2020 12:00:00 26,3 21,5 8 4 S 1015,6 -
10.07.2020 11:00:00 27,1 22,4 4 2 SSE 1015,5 -
10.07.2020 10:00:00 25,0 22,2 4 2 NNE 1015,5 -
10.07.2020 09:00:00 24,3 21,7 4 2 NE 1015,2 -
10.07.2020 08:00:00 22,7 20,9 2 1 ENE 1015,3 0,0
10.07.2020 07:00:00 21,9 20,1 5 3 NNE 1015,2 -
10.07.2020 06:00:00 20,8 17,0 2 1 NW 1015,1 -
10.07.2020 05:00:00 21,7 16,4 2 1 NW 1015,6 -
10.07.2020 04:00:00 23,9 18,3 4 2 NW 1015,9 -
10.07.2020 03:00:00 24,1 19,5 4 2 W 1015,9 -
10.07.2020 02:00:00 24,3 19,9 8 4 WSW 1016,1 0,0
10.07.2020 01:00:00 24,0 18,8 4 2 WSW 1016,0 -
10.07.2020 00:00:00 25,0 19,8 5 3 SW 1015,8 -
09.07.2020 23:00:00 25,0 19,3 8 4 SSW 1015,5 -
09.07.2020 22:00:00 25,5 19,8 8 4 SSW 1015,3 -
09.07.2020 21:00:00 26,3 20,1 9 5 SSW 1015,2 -
09.07.2020 20:00:00 26,9 18,7 11 6 S 1015,4 0,0
09.07.2020 19:00:00 27,0 18,5 13 7 SSW 1015,9 -
09.07.2020 18:00:00 26,9 18,7 15 8 SSW 1016,5 -
09.07.2020 17:00:00 26,8 17,8 13 7 SSW 1017,0 -
09.07.2020 16:00:00 26,4 18,7 13 7 SSW 1017,4 -
09.07.2020 15:00:00 26,4 18,2 11 6 S 1017,7 -
09.07.2020 14:00:00 26,2 18,5 11 6 S 1018,0 0,0
09.07.2020 13:00:00 25,5 18,9 11 6 S 1018,2 -
09.07.2020 12:00:00 26,9 15,5 5 3 E 1018,1 -
09.07.2020 11:00:00 25,6 16,9 8 4 ENE 1018,1 -
09.07.2020 10:00:00 25,3 18,7 5 3 E 1017,9 -
09.07.2020 09:00:00 23,6 18,8 5 3 ENE 1017,7 -
09.07.2020 08:00:00 22,0 18,3 4 2 ENE 1017,5 0,0
09.07.2020 07:00:00 20,8 16,3 4 2 NNE 1017,2 -
09.07.2020 06:00:00 19,5 14,2 2 1 NNW 1017,0 -
09.07.2020 05:00:00 21,4 15,4 4 2 NW 1017,2 -
09.07.2020 04:00:00 21,8 16,0 4 2 WNW 1017,2 -
09.07.2020 03:00:00 21,1 16,2 2 1 NNW 1017,2 -
09.07.2020 02:00:00 21,8 16,9 4 2 W 1017,3 0,0
09.07.2020 01:00:00 21,7 15,2 4 2 WSW 1017,1 -
09.07.2020 00:00:00 23,2 16,4 4 2 WSW 1016,8 -
08.07.2020 23:00:00 22,9 15,6 5 3 SSW 1016,6 -
08.07.2020 22:00:00 23,4 15,1 5 3 SSW 1016,1 -
08.07.2020 21:00:00 24,4 14,4 9 5 S 1016,0 -
08.07.2020 20:00:00 25,0 13,8 11 6 S 1016,2 0,0
08.07.2020 19:00:00 25,1 12,6 11 6 S 1016,5 -
08.07.2020 18:00:00 25,1 12,0 11 6 S 1017,2 -
08.07.2020 17:00:00 24,9 14,3 11 6 S 1017,6 -
08.07.2020 16:00:00 24,4 15,0 11 6 S 1018,0 -
08.07.2020 15:00:00 24,3 12,2 9 5 SSE 1018,4 -
08.07.2020 14:00:00 24,5 13,3 11 6 SSE 1018,5 0,0
08.07.2020 13:00:00 24,3 13,7 11 6 SSE 1018,6 -
08.07.2020 12:00:00 24,1 15,2 11 6 SE 1018,5 -
08.07.2020 11:00:00 23,5 15,2 13 7 ESE 1018,6 -

tt = temperature
td = dewpoint
ff = wind speed
dd = wind direction
ppp = reduced air pressure
rr = precipitation

Next stations